createdAt,value
2019-03-12T00:00:46.084Z,78.65
2019-03-12T00:03:15.583Z,79.18
2019-03-12T00:05:45.109Z,79.18
2019-03-12T00:08:14.620Z,79.48
2019-03-12T00:10:44.108Z,79.57
2019-03-12T00:13:13.608Z,79.86
2019-03-12T00:15:43.076Z,81.05
2019-03-12T00:18:12.563Z,81.74
2019-03-12T00:20:42.059Z,82.73
2019-03-12T00:23:11.528Z,83.21
2019-03-12T00:25:41.011Z,83.80
2019-03-12T00:28:10.512Z,83.75
2019-03-12T00:30:40.031Z,84.58
2019-03-12T00:33:09.510Z,85.25
2019-03-12T00:35:38.971Z,85.20
2019-03-12T00:38:08.495Z,85.08
2019-03-12T00:40:37.969Z,86.12
2019-03-12T00:43:07.420Z,86.11
2019-03-12T00:45:36.898Z,86.61
2019-03-12T00:48:06.382Z,86.86
2019-03-12T00:50:35.822Z,87.32
2019-03-12T00:53:05.360Z,87.02
2019-03-12T00:55:34.842Z,87.35
2019-03-12T00:58:04.337Z,87.37
2019-03-12T01:00:33.843Z,87.65
2019-03-12T01:03:03.345Z,87.66
2019-03-12T01:05:32.841Z,87.99
2019-03-12T01:08:02.316Z,88.21
2019-03-12T01:10:31.886Z,88.41
2019-03-12T01:13:01.445Z,88.28
2019-03-12T01:15:30.992Z,87.45
2019-03-12T01:18:00.548Z,88.15
2019-03-12T01:20:30.014Z,88.44
2019-03-12T01:22:59.521Z,88.02
2019-03-12T01:25:29.065Z,88.52
2019-03-12T01:27:58.611Z,88.55
2019-03-12T01:30:28.131Z,88.86
2019-03-12T01:32:57.600Z,88.87
2019-03-12T01:35:27.076Z,89.58
2019-03-12T01:37:56.603Z,89.75
2019-03-12T01:40:26.103Z,89.41
2019-03-12T01:42:55.602Z,89.03
2019-03-12T01:45:25.049Z,89.28
2019-03-12T01:47:54.519Z,89.46
2019-03-12T01:50:24.099Z,89.45
2019-03-12T01:52:53.641Z,89.00
2019-03-12T01:55:23.201Z,88.19
2019-03-12T01:57:52.672Z,88.52
2019-03-12T02:00:22.319Z,88.36
2019-03-12T02:02:51.837Z,88.28
2019-03-12T02:05:21.345Z,88.65
2019-03-12T02:07:50.854Z,88.82
2019-03-12T02:10:20.372Z,88.55
2019-03-12T02:12:49.900Z,88.17
2019-03-12T02:15:19.413Z,88.39
2019-03-12T02:17:48.987Z,89.02
2019-03-12T02:20:18.845Z,89.50
2019-03-12T02:22:48.334Z,89.21
2019-03-12T02:25:17.836Z,89.38
2019-03-12T02:27:47.341Z,88.89
2019-03-12T02:30:17.633Z,88.58
2019-03-12T02:32:47.157Z,87.95
2019-03-12T02:35:16.757Z,87.71
2019-03-12T02:37:46.226Z,87.23
2019-03-12T02:40:16.522Z,87.15
2019-03-12T02:42:46.002Z,87.06
2019-03-12T02:45:15.767Z,86.99
2019-03-12T02:47:47.012Z,86.62
2019-03-12T02:50:16.691Z,86.90
2019-03-12T02:52:46.204Z,86.75
2019-03-12T02:55:15.938Z,86.83
2019-03-12T02:57:45.709Z,86.80
2019-03-12T03:00:18.697Z,86.34
2019-03-12T03:02:48.333Z,86.48
2019-03-12T03:05:17.942Z,86.74
2019-03-12T03:07:58.874Z,86.49
2019-03-12T03:10:28.391Z,86.64
2019-03-12T03:12:57.899Z,86.65
2019-03-12T03:15:30.556Z,86.35
2019-03-12T03:18:00.076Z,86.47
2019-03-12T03:20:29.536Z,86.39
2019-03-12T03:22:59.122Z,86.42
2019-03-12T03:25:28.623Z,86.49
2019-03-12T03:27:58.114Z,85.62
2019-03-12T03:30:27.806Z,85.08
2019-03-12T03:32:57.417Z,85.01
2019-03-12T03:35:27.001Z,84.99
2019-03-12T03:37:56.505Z,84.54
2019-03-12T03:40:26.070Z,84.58
2019-03-12T03:42:55.594Z,83.93
2019-03-12T03:45:25.075Z,83.82
2019-03-12T03:47:54.576Z,84.03
2019-03-12T03:50:24.123Z,84.25
2019-03-12T03:52:53.576Z,83.84
2019-03-12T03:55:23.141Z,83.32
2019-03-12T03:57:52.694Z,83.22
2019-03-12T04:00:22.546Z,83.44
2019-03-12T04:02:52.136Z,82.99
2019-03-12T04:05:21.763Z,83.13
2019-03-12T04:07:53.857Z,83.37
2019-03-12T04:10:23.314Z,83.77
2019-03-12T04:12:52.805Z,84.36
2019-03-12T04:15:22.709Z,84.45
2019-03-12T04:17:52.254Z,83.99
2019-03-12T04:20:21.758Z,84.24
2019-03-12T04:22:51.300Z,84.36
2019-03-12T04:25:20.908Z,84.02
2019-03-12T04:27:50.389Z,84.17
2019-03-12T04:30:19.904Z,84.26
2019-03-12T04:32:49.448Z,83.95
2019-03-12T04:35:19.756Z,84.18
2019-03-12T04:37:49.228Z,83.85
2019-03-12T04:40:18.787Z,84.49
2019-03-12T04:42:48.353Z,85.53
2019-03-12T04:45:17.838Z,85.32
2019-03-12T04:47:47.335Z,86.05
2019-03-12T04:50:17.056Z,86.53
2019-03-12T04:52:46.636Z,86.76
2019-03-12T04:55:16.201Z,86.60
2019-03-12T04:57:45.866Z,86.28
2019-03-12T05:00:16.726Z,86.66
2019-03-12T05:02:46.250Z,86.59
2019-03-12T05:05:15.786Z,86.63
2019-03-12T05:07:45.310Z,86.53
2019-03-12T05:10:15.644Z,86.61
2019-03-12T05:12:45.253Z,86.70
2019-03-12T05:15:15.175Z,86.70
2019-03-12T05:17:45.156Z,86.43
2019-03-12T05:20:15.175Z,86.13
2019-03-12T05:22:44.707Z,86.06
2019-03-12T05:25:14.846Z,86.15
2019-03-12T05:27:44.586Z,85.51
2019-03-12T05:30:16.179Z,86.21
2019-03-12T05:32:45.713Z,85.94
2019-03-12T05:35:15.361Z,86.17
2019-03-12T05:37:45.411Z,85.99
2019-03-12T05:40:15.187Z,85.51
2019-03-12T05:42:45.029Z,85.29
2019-03-12T05:45:14.647Z,85.64
2019-03-12T05:47:44.173Z,85.53
2019-03-12T05:50:14.019Z,85.86
2019-03-12T05:52:43.570Z,86.25
2019-03-12T05:55:14.509Z,85.15
2019-03-12T05:57:44.401Z,85.92
2019-03-12T06:00:15.015Z,86.12
2019-03-12T06:02:44.644Z,85.64
2019-03-12T06:05:14.308Z,85.17
2019-03-12T06:07:44.048Z,85.46
2019-03-12T06:10:14.023Z,85.44
2019-03-12T06:12:43.572Z,85.72
2019-03-12T06:15:13.616Z,85.81
2019-03-12T06:17:43.212Z,85.87
2019-03-12T06:20:12.871Z,85.73
2019-03-12T06:22:42.632Z,86.33
2019-03-12T06:25:12.184Z,86.09
2019-03-12T06:27:41.721Z,85.98
2019-03-12T06:30:12.158Z,85.99
2019-03-12T06:33:00.594Z,86.28
2019-03-12T06:35:43.541Z,86.62
2019-03-12T06:38:41.008Z,86.13
2019-03-12T06:41:35.522Z,85.91
2019-03-12T06:44:19.414Z,86.25
2019-03-12T06:47:07.948Z,85.94
2019-03-12T06:49:45.585Z,86.15
2019-03-12T06:52:24.906Z,85.94
2019-03-12T06:55:13.327Z,85.85
2019-03-12T06:58:35.893Z,86.29
2019-03-12T07:01:30.383Z,86.28
2019-03-12T07:04:15.095Z,86.23
2019-03-12T07:07:12.823Z,86.38
2019-03-12T07:10:01.473Z,86.22
2019-03-12T07:12:43.593Z,85.38
2019-03-12T07:15:28.677Z,85.64
2019-03-12T07:18:16.493Z,85.67
2019-03-12T07:20:59.916Z,85.38
2019-03-12T07:23:41.927Z,85.58
2019-03-12T07:26:36.613Z,85.43
2019-03-12T07:29:31.149Z,85.21
2019-03-12T07:32:19.589Z,84.90
2019-03-12T07:35:07.167Z,84.83
2019-03-12T07:38:03.312Z,84.27
2019-03-12T07:40:45.966Z,84.24
2019-03-12T07:43:26.103Z,84.32
2019-03-12T07:46:26.917Z,84.35
2019-03-12T07:49:27.426Z,84.34
2019-03-12T07:52:11.810Z,84.31
2019-03-12T07:55:15.593Z,84.82
2019-03-12T07:58:01.305Z,85.11
2019-03-12T08:00:43.939Z,85.32
2019-03-12T08:03:38.420Z,85.40
2019-03-12T08:06:19.463Z,85.15
2019-03-12T08:09:06.604Z,84.40
2019-03-12T08:11:47.809Z,84.44
2019-03-12T08:14:54.348Z,84.91
2019-03-12T08:17:41.902Z,84.51
2019-03-12T08:20:30.382Z,85.62
2019-03-12T08:23:31.347Z,85.41
2019-03-12T08:26:22.686Z,84.26
2019-03-12T08:29:11.207Z,84.47
2019-03-12T08:31:58.327Z,84.26
2019-03-12T08:34:47.855Z,83.49
2019-03-12T08:37:35.812Z,83.98
2019-03-12T08:40:14.621Z,82.83
2019-03-12T08:43:01.900Z,82.54
2019-03-12T08:45:56.193Z,82.17
2019-03-12T08:48:38.545Z,82.42
2019-03-12T08:51:30.409Z,82.84
2019-03-12T08:54:17.720Z,82.53
2019-03-12T08:57:18.533Z,82.11
2019-03-12T09:00:15.899Z,82.40
2019-03-12T09:03:01.304Z,81.81
2019-03-12T09:05:36.182Z,82.18
2019-03-12T09:08:23.576Z,82.50
2019-03-12T09:11:08.484Z,81.69
2019-03-12T09:13:56.965Z,81.32
2019-03-12T09:16:47.054Z,80.94
2019-03-12T09:19:29.540Z,82.20
2019-03-12T09:22:07.025Z,82.64
2019-03-12T09:24:54.189Z,81.81
2019-03-12T09:27:41.200Z,81.78
2019-03-12T09:30:36.057Z,82.50
2019-03-12T09:33:12.152Z,81.49
2019-03-12T09:36:09.816Z,82.34
2019-03-12T09:38:44.420Z,82.52
2019-03-12T09:41:20.058Z,81.72
2019-03-12T09:43:58.369Z,79.95
2019-03-12T09:46:49.683Z,78.69
2019-03-12T09:49:36.845Z,78.42
2019-03-12T09:52:14.508Z,76.09
2019-03-12T09:55:05.820Z,75.93
2019-03-12T09:57:54.337Z,76.68
2019-03-12T10:00:29.911Z,75.45
2019-03-12T10:03:16.998Z,74.59
2019-03-12T10:05:57.191Z,75.20
2019-03-12T10:08:54.677Z,75.75
2019-03-12T10:11:42.460Z,74.97
2019-03-12T10:14:31.088Z,74.99
2019-03-12T10:17:25.551Z,75.50
2019-03-12T10:20:14.096Z,74.27
2019-03-12T10:22:55.487Z,74.21
2019-03-12T10:25:47.275Z,73.67
2019-03-12T10:28:39.024Z,73.19
2019-03-12T10:31:25.658Z,73.60
2019-03-12T10:34:28.787Z,73.25
2019-03-12T10:36:56.399Z,74.03
2019-03-12T10:40:05.598Z,73.72
2019-03-12T10:42:40.271Z,74.28
2019-03-12T10:45:32.342Z,72.52
2019-03-12T10:48:01.871Z,71.86
2019-03-12T10:50:31.360Z,70.67
2019-03-12T10:53:01.029Z,70.56
2019-03-12T10:55:30.571Z,69.61
2019-03-12T10:58:00.226Z,69.79
2019-03-12T11:00:29.988Z,69.72
2019-03-12T11:02:59.473Z,68.92
2019-03-12T11:05:29.135Z,69.63
2019-03-12T11:07:58.657Z,68.71
2019-03-12T11:10:28.476Z,68.77
2019-03-12T11:12:57.975Z,68.77
2019-03-12T11:15:27.717Z,68.64
2019-03-12T11:17:57.252Z,68.77
2019-03-12T11:20:26.803Z,69.20
2019-03-12T11:22:56.465Z,69.44
2019-03-12T11:25:28.091Z,69.26
2019-03-12T11:27:57.318Z,70.06
2019-03-12T11:30:26.920Z,70.11
2019-03-12T11:32:56.601Z,70.56
2019-03-12T11:35:26.197Z,70.05
2019-03-12T11:37:55.737Z,69.84
2019-03-12T11:40:30.376Z,68.08
2019-03-12T11:42:56.878Z,68.19
2019-03-12T11:45:36.230Z,67.86
2019-03-12T11:47:57.826Z,66.84
2019-03-12T11:50:27.371Z,67.36
2019-03-12T11:52:59.386Z,67.62
2019-03-12T11:55:28.276Z,66.82
2019-03-12T11:57:57.896Z,66.81
2019-03-12T12:00:30.692Z,67.37
2019-03-12T12:03:00.826Z,67.96
2019-03-12T12:05:30.499Z,66.87
2019-03-12T12:08:00.217Z,66.86
2019-03-12T12:10:30.121Z,67.23
2019-03-12T12:12:59.669Z,68.85
2019-03-12T12:15:29.330Z,68.53
2019-03-12T12:17:58.886Z,68.19
2019-03-12T12:20:30.343Z,68.14
2019-03-12T12:22:59.876Z,68.08
2019-03-12T12:25:29.409Z,68.49
2019-03-12T12:27:58.999Z,68.22
2019-03-12T12:30:28.543Z,68.45
2019-03-12T12:32:58.081Z,69.44
2019-03-12T12:35:27.645Z,69.16
2019-03-12T12:37:57.170Z,68.80
2019-03-12T12:40:26.689Z,68.53
2019-03-12T12:42:56.180Z,67.99
2019-03-12T12:45:26.144Z,68.61
2019-03-12T12:47:55.732Z,68.54
2019-03-12T12:50:25.239Z,68.73
2019-03-12T12:52:54.780Z,68.64
2019-03-12T12:55:24.304Z,68.66
2019-03-12T12:57:53.816Z,68.12
2019-03-12T13:00:23.559Z,67.96
2019-03-12T13:02:53.037Z,68.07
2019-03-12T13:05:22.714Z,68.22
2019-03-12T13:07:52.177Z,68.25
2019-03-12T13:10:25.396Z,67.59
2019-03-12T13:12:54.884Z,67.90
2019-03-12T13:15:24.828Z,68.14
2019-03-12T13:17:54.389Z,68.51
2019-03-12T13:20:24.019Z,68.91
2019-03-12T13:22:53.639Z,69.11
2019-03-12T13:25:23.158Z,69.14
2019-03-12T13:27:52.730Z,68.70
2019-03-12T13:30:22.439Z,67.90
2019-03-12T13:32:51.984Z,67.80
2019-03-12T13:35:21.607Z,68.09
2019-03-12T13:37:51.427Z,67.02
2019-03-12T13:40:21.205Z,66.73
2019-03-12T13:42:50.971Z,67.04
2019-03-12T13:45:20.755Z,67.52
2019-03-12T13:47:50.280Z,66.55
2019-03-12T13:50:19.809Z,65.68
2019-03-12T13:52:49.370Z,66.97
2019-03-12T13:55:19.127Z,67.09
2019-03-12T13:57:48.715Z,67.57
2019-03-12T14:00:19.723Z,68.53
2019-03-12T14:02:49.352Z,68.91
2019-03-12T14:05:18.937Z,67.59
2019-03-12T14:07:48.565Z,68.92
2019-03-12T14:10:19.812Z,68.67
2019-03-12T14:12:49.497Z,68.48
2019-03-12T14:15:27.189Z,68.99
2019-03-12T14:17:56.932Z,69.29
2019-03-12T14:20:43.705Z,69.76
2019-03-12T14:23:15.674Z,67.53
2019-03-12T14:25:45.458Z,67.70
2019-03-12T14:28:15.124Z,67.55
2019-03-12T14:30:45.665Z,67.52
2019-03-12T14:33:15.295Z,68.09
2019-03-12T14:35:51.431Z,67.50
2019-03-12T14:38:16.558Z,67.36
2019-03-12T14:40:46.057Z,67.04
2019-03-12T14:43:15.686Z,67.45
2019-03-12T14:45:49.137Z,66.16
2019-03-12T14:48:59.671Z,65.61
2019-03-12T14:51:48.275Z,65.88
2019-03-12T14:54:17.846Z,65.04
2019-03-12T14:56:47.375Z,65.22
2019-03-12T14:59:16.882Z,63.86
2019-03-12T15:01:46.562Z,63.86
2019-03-12T15:04:16.072Z,64.28
2019-03-12T15:06:45.586Z,64.39
2019-03-12T15:09:16.272Z,63.71
2019-03-12T15:11:45.838Z,63.19
2019-03-12T15:14:15.312Z,63.23
2019-03-12T15:16:44.805Z,63.80
2019-03-12T15:19:14.368Z,63.61
2019-03-12T15:21:43.914Z,63.81
2019-03-12T15:24:13.442Z,63.95
2019-03-12T15:26:43.012Z,63.27
2019-03-12T15:29:12.498Z,63.53
2019-03-12T15:31:41.984Z,63.65
2019-03-12T15:34:11.513Z,64.03
2019-03-12T15:36:41.030Z,64.44
2019-03-12T15:39:11.715Z,64.39
2019-03-12T15:41:41.176Z,63.83
2019-03-12T15:44:10.740Z,64.29
2019-03-12T15:46:40.325Z,64.68
2019-03-12T15:49:09.820Z,64.83
2019-03-12T15:51:39.364Z,64.76
2019-03-12T15:54:09.017Z,65.14
2019-03-12T15:56:38.536Z,64.71
2019-03-12T15:59:08.088Z,65.28
2019-03-12T16:01:37.635Z,65.84
2019-03-12T16:04:07.172Z,65.17
2019-03-12T16:06:36.686Z,65.39
2019-03-12T16:09:08.465Z,66.04
2019-03-12T16:11:37.985Z,66.54
2019-03-12T16:14:07.587Z,66.37
2019-03-12T16:16:37.172Z,66.05
2019-03-12T16:19:06.734Z,66.41
2019-03-12T16:21:36.318Z,66.48
2019-03-12T16:24:05.861Z,66.78
2019-03-12T16:26:35.438Z,66.90
2019-03-12T16:29:04.975Z,66.74
2019-03-12T16:31:34.585Z,66.65
2019-03-12T16:34:04.112Z,66.73
2019-03-12T16:36:33.677Z,66.69
2019-03-12T16:39:04.626Z,67.10
2019-03-12T16:41:34.119Z,67.44
2019-03-12T16:44:04.061Z,67.10
2019-03-12T16:46:33.609Z,68.07
2019-03-12T16:49:03.175Z,67.81
2019-03-12T16:51:32.777Z,67.61
2019-03-12T16:54:05.247Z,68.07
2019-03-12T16:56:44.649Z,68.30
2019-03-12T16:59:08.114Z,67.70
2019-03-12T17:01:36.098Z,67.65
2019-03-12T17:04:05.729Z,68.09
2019-03-12T17:06:35.234Z,68.57
2019-03-12T17:09:05.903Z,68.79
2019-03-12T17:11:35.500Z,68.43
2019-03-12T17:14:05.130Z,69.55
2019-03-12T17:16:34.653Z,69.41
2019-03-12T17:19:04.252Z,68.35
2019-03-12T17:21:33.805Z,68.64
2019-03-12T17:24:03.331Z,68.22
2019-03-12T17:26:32.962Z,68.35
2019-03-12T17:29:02.545Z,68.35
2019-03-12T17:31:32.088Z,69.21
2019-03-12T17:34:01.623Z,69.03
2019-03-12T17:36:31.161Z,69.39
2019-03-12T17:39:00.713Z,69.67
2019-03-12T17:41:30.315Z,69.71
2019-03-12T17:43:59.852Z,69.99
2019-03-12T17:46:29.612Z,69.81
2019-03-12T17:48:59.480Z,69.84
2019-03-12T17:51:29.121Z,69.68
2019-03-12T17:53:58.764Z,69.88
2019-03-12T17:56:28.245Z,69.76
2019-03-12T17:58:57.880Z,69.84
2019-03-12T18:01:30.224Z,69.90
2019-03-12T18:03:58.783Z,69.25
2019-03-12T18:06:28.345Z,69.58
2019-03-12T18:08:57.882Z,69.26
2019-03-12T18:11:27.426Z,68.78
2019-03-12T18:13:57.275Z,68.84
2019-03-12T18:16:39.959Z,68.92
2019-03-12T18:18:58.227Z,69.16
2019-03-12T18:21:27.888Z,69.04
2019-03-12T18:23:57.494Z,68.29
2019-03-12T18:26:27.100Z,69.16
2019-03-12T18:28:59.135Z,69.77
2019-03-12T18:31:28.030Z,70.11
2019-03-12T18:33:57.849Z,70.75
2019-03-12T18:36:27.446Z,71.48
2019-03-12T18:38:57.109Z,71.97
2019-03-12T18:41:26.886Z,72.10
2019-03-12T18:43:56.561Z,72.29
2019-03-12T18:46:26.218Z,72.21
2019-03-12T18:48:55.892Z,72.32
2019-03-12T18:51:25.452Z,72.25
2019-03-12T18:53:55.069Z,72.20
2019-03-12T18:56:24.563Z,72.65
2019-03-12T18:58:54.107Z,73.08
2019-03-12T19:01:23.665Z,73.25
2019-03-12T19:03:53.159Z,73.18
2019-03-12T19:06:22.736Z,73.43
2019-03-12T19:08:52.213Z,73.48
2019-03-12T19:11:22.007Z,73.89
2019-03-12T19:13:51.591Z,74.09
2019-03-12T19:16:21.173Z,74.08
2019-03-12T19:18:50.847Z,74.34
2019-03-12T19:21:20.354Z,74.20
2019-03-12T19:23:49.949Z,74.37
2019-03-12T19:26:19.495Z,74.34
2019-03-12T19:28:49.065Z,74.34
2019-03-12T19:31:37.526Z,74.65
2019-03-12T19:34:20.443Z,74.64
2019-03-12T19:36:50.293Z,74.56
2019-03-12T19:39:20.201Z,74.62
2019-03-12T19:41:49.712Z,74.53
2019-03-12T19:44:19.391Z,74.82
2019-03-12T19:46:48.978Z,74.88
2019-03-12T19:49:18.516Z,74.67
2019-03-12T19:51:48.053Z,74.51
2019-03-12T19:54:17.525Z,73.93
2019-03-12T19:56:47.054Z,73.88
2019-03-12T19:59:16.655Z,73.84
2019-03-12T20:01:46.782Z,74.22
2019-03-12T20:04:16.235Z,74.19
2019-03-12T20:06:45.914Z,74.16
2019-03-12T20:09:26.623Z,73.81
2019-03-12T20:12:33.255Z,74.23
2019-03-12T20:15:51.689Z,73.95
2019-03-12T20:19:14.060Z,73.56
2019-03-12T20:22:36.293Z,73.15
2019-03-12T20:25:41.577Z,73.47
2019-03-12T20:28:47.429Z,72.98
2019-03-12T20:31:45.467Z,72.99
2019-03-12T20:34:50.773Z,72.81
2019-03-12T20:38:09.068Z,72.82
2019-03-12T20:41:21.199Z,72.96
2019-03-12T20:44:27.761Z,73.42
2019-03-12T20:47:44.483Z,73.48
2019-03-12T20:51:07.117Z,73.98
2019-03-12T20:54:13.086Z,74.23
2019-03-12T20:57:31.203Z,74.12
2019-03-12T21:00:27.076Z,73.31
2019-03-12T21:03:32.575Z,73.51
2019-03-12T21:06:35.462Z,73.16
2019-03-12T21:09:54.957Z,73.08
2019-03-12T21:13:10.166Z,72.39
2019-03-12T21:16:07.220Z,71.83
2019-03-12T21:19:17.796Z,72.19
2019-03-12T21:22:32.891Z,72.08
2019-03-12T21:25:33.287Z,71.58
2019-03-12T21:28:32.463Z,72.06
2019-03-12T21:31:01.989Z,72.29
2019-03-12T21:33:31.529Z,71.98
2019-03-12T21:36:00.981Z,71.67
2019-03-12T21:38:30.488Z,71.23
2019-03-12T21:40:59.994Z,70.77
2019-03-12T21:43:29.499Z,70.65
2019-03-12T21:45:59.088Z,70.74
2019-03-12T21:48:28.626Z,71.12
2019-03-12T21:50:58.151Z,70.89
2019-03-12T21:53:27.672Z,70.90
2019-03-12T21:55:57.320Z,70.29
2019-03-12T21:58:26.787Z,70.24
2019-03-12T22:00:56.390Z,70.05
2019-03-12T22:03:25.874Z,69.81
2019-03-12T22:05:55.426Z,69.87
2019-03-12T22:08:25.381Z,69.87
2019-03-12T22:10:55.409Z,69.83
2019-03-12T22:13:24.904Z,70.02
2019-03-12T22:15:54.402Z,69.39
2019-03-12T22:18:23.922Z,69.58
2019-03-12T22:20:53.462Z,69.71
2019-03-12T22:23:29.575Z,69.69
2019-03-12T22:25:59.099Z,69.85
2019-03-12T22:28:28.580Z,70.13
2019-03-12T22:30:58.085Z,70.28
2019-03-12T22:33:27.601Z,70.29
2019-03-12T22:35:57.109Z,70.61
2019-03-12T22:38:26.675Z,70.62
2019-03-12T22:40:56.136Z,70.61
2019-03-12T22:43:25.607Z,70.39
2019-03-12T22:45:55.095Z,70.39
2019-03-12T22:48:24.581Z,70.58
2019-03-12T22:50:54.065Z,71.18
2019-03-12T22:53:23.556Z,71.68
2019-03-12T22:55:53.098Z,71.44
2019-03-12T22:58:22.550Z,71.10
2019-03-12T23:00:53.155Z,71.16
2019-03-12T23:03:22.616Z,71.48
2019-03-12T23:05:52.087Z,71.22
2019-03-12T23:08:21.622Z,71.07
2019-03-12T23:10:51.814Z,71.28
2019-03-12T23:13:21.275Z,71.26
2019-03-12T23:15:50.773Z,71.10
2019-03-12T23:18:20.278Z,70.88
2019-03-12T23:20:50.205Z,71.15
2019-03-12T23:23:19.791Z,71.67
2019-03-12T23:25:49.318Z,71.75
2019-03-12T23:28:18.807Z,71.52
2019-03-12T23:30:48.268Z,71.76
2019-03-12T23:33:17.793Z,71.51
2019-03-12T23:35:47.301Z,71.49
2019-03-12T23:38:16.781Z,71.19
2019-03-12T23:40:46.256Z,71.33
2019-03-12T23:43:15.817Z,71.44
2019-03-12T23:45:45.312Z,71.40
2019-03-12T23:48:14.846Z,71.25
2019-03-12T23:50:44.326Z,71.86
2019-03-12T23:53:13.828Z,72.05
2019-03-12T23:55:43.425Z,72.49
2019-03-12T23:58:12.934Z,72.53
